Time;durP1;ratioP1;P1;durP2;ratioP2;P2;SDS_P1;SDS_P2;PMS_P1;PMS_P2;Temp;Humidity;BMP_temperature;BMP_pressure;BME280_temperature;BME280_humidity;BME280_pressure;Samples;Min_cycle;Max_cycle;Signal;HPM_P1;HPM_P2
2022/11/15 00:01:44;;;;;;;31.40;11.30;;;6.60;99.90;;;;;;5053515;28;20029;-75
2022/11/15 00:04:10;;;;;;;31.20;10.43;;;6.60;99.90;;;;;;5035290;28;20033;-75
2022/11/15 00:06:35;;;;;;;29.35;11.43;;;6.60;99.90;;;;;;5035625;28;20053;-75
2022/11/15 00:09:01;;;;;;;40.97;11.27;;;6.70;99.90;;;;;;5053423;28;20472;-75
2022/11/15 00:11:27;;;;;;;38.65;11.77;;;6.70;99.90;;;;;;5035566;28;20017;-74
2022/11/15 00:13:57;;;;;;;34.30;10.65;;;6.70;99.90;;;;;;5053732;28;20427;-74
2022/11/15 00:16:23;;;;;;;37.83;11.52;;;6.70;99.90;;;;;;5053058;28;20087;-74
2022/11/15 00:18:50;;;;;;;37.13;10.63;;;6.70;99.90;;;;;;5053301;28;20021;-74
2022/11/15 00:21:17;;;;;;;34.50;11.55;;;6.80;99.90;;;;;;5035809;28;20021;-74
2022/11/15 00:23:42;;;;;;;34.92;11.45;;;6.70;99.90;;;;;;5035894;28;20029;-75
2022/11/15 00:26:12;;;;;;;53.10;13.52;;;6.80;99.90;;;;;;5035238;28;20492;-75
2022/11/15 00:28:38;;;;;;;45.30;12.95;;;6.80;99.90;;;;;;5053092;28;20033;-75
2022/11/15 00:31:06;;;;;;;44.50;13.07;;;6.70;99.90;;;;;;5035332;28;20032;-75
2022/11/15 00:33:33;;;;;;;40.17;11.75;;;6.80;99.90;;;;;;5053129;28;20041;-75
2022/11/15 00:36:01;;;;;;;45.13;13.45;;;6.70;99.90;;;;;;5053200;28;20053;-75
2022/11/15 00:38:31;;;;;;;39.75;14.63;;;6.70;99.90;;;;;;5053161;28;20021;-75
2022/11/15 00:40:56;;;;;;;45.97;13.70;;;6.70;99.90;;;;;;5055891;28;20059;-75
2022/11/15 00:43:22;;;;;;;42.63;12.93;;;6.70;99.90;;;;;;5056633;28;20024;-75
2022/11/15 00:45:47;;;;;;;37.80;13.00;;;6.80;99.90;;;;;;5038616;28;20021;-75
2022/11/15 00:48:13;;;;;;;54.35;14.95;;;6.80;99.90;;;;;;5038355;28;20025;-75
2022/11/15 00:50:39;;;;;;;49.00;14.70;;;6.80;99.90;;;;;;5038652;28;20029;-75
2022/11/15 00:53:04;;;;;;;46.67;15.27;;;6.80;99.90;;;;;;5056373;28;20423;-75
2022/11/15 00:55:30;;;;;;;48.88;14.23;;;6.80;99.90;;;;;;5056203;28;20029;-75
2022/11/15 00:57:55;;;;;;;44.65;13.32;;;6.80;99.90;;;;;;5056613;28;20021;-75
2022/11/15 01:00:21;;;;;;;48.90;13.82;;;6.80;99.90;;;;;;5056217;28;20214;-75
2022/11/15 01:02:46;;;;;;;47.05;14.68;;;6.80;99.90;;;;;;5038688;28;20091;-75
2022/11/15 01:05:12;;;;;;;42.15;13.02;;;6.80;99.90;;;;;;5055954;28;20601;-75
2022/11/15 01:07:38;;;;;;;43.90;13.38;;;6.80;99.90;;;;;;5056416;28;20047;-75
2022/11/15 01:10:04;;;;;;;41.65;12.70;;;6.80;99.90;;;;;;5056480;28;20040;-74
2022/11/15 01:12:30;;;;;;;44.33;14.02;;;6.90;99.90;;;;;;5055956;28;20487;-74
2022/11/15 01:14:55;;;;;;;49.55;13.55;;;6.90;99.90;;;;;;5056084;28;20028;-74
2022/11/15 01:17:21;;;;;;;39.10;12.65;;;6.90;99.90;;;;;;5056078;28;20075;-75
2022/11/15 01:19:46;;;;;;;51.28;15.73;;;6.90;99.90;;;;;;5038081;28;20013;-74
2022/11/15 01:22:12;;;;;;;47.40;14.93;;;6.90;99.90;;;;;;5038149;28;20493;-74
2022/11/15 01:24:37;;;;;;;46.20;14.20;;;6.90;99.90;;;;;;5055982;28;20101;-74
2022/11/15 01:27:03;;;;;;;48.38;13.80;;;6.90;99.90;;;;;;5038224;28;20033;-74
2022/11/15 01:29:28;;;;;;;45.75;13.57;;;7.00;99.90;;;;;;5055713;28;20047;-74
2022/11/15 01:31:54;;;;;;;46.00;13.93;;;7.00;99.90;;;;;;5038347;28;20017;-74
2022/11/15 01:34:20;;;;;;;44.78;13.75;;;7.10;99.90;;;;;;5037580;28;20035;-74
2022/11/15 01:36:45;;;;;;;46.30;14.15;;;7.10;99.90;;;;;;5055751;28;20361;-74
2022/11/15 01:39:11;;;;;;;41.42;12.50;;;7.10;99.90;;;;;;5055886;28;20025;-75
2022/11/15 01:41:36;;;;;;;40.35;13.57;;;7.10;99.90;;;;;;5055751;28;20018;-74
2022/11/15 01:44:41;;;;;;;49.58;14.90;;;7.10;99.90;;;;;;5037649;28;20025;-75
2022/11/15 01:47:13;;;;;;;44.28;13.10;;;7.10;99.90;;;;;;5037347;28;20021;-74
2022/11/15 01:49:45;;;;;;;51.72;16.23;;;7.20;99.90;;;;;;5037404;28;20102;-74
2022/11/15 01:52:16;;;;;;;43.78;15.02;;;7.20;99.90;;;;;;5055051;28;20056;-74
2022/11/15 01:54:43;;;;;;;40.53;14.23;;;7.20;99.90;;;;;;5055406;28;20033;-74
2022/11/15 01:57:11;;;;;;;50.63;14.15;;;7.20;99.90;;;;;;5055621;28;20099;-75
2022/11/15 01:59:39;;;;;;;46.13;15.30;;;8.00;99.90;;;;;;5055181;28;20384;-74
2022/11/15 02:02:04;;;;;;;52.33;15.90;;;7.30;99.90;;;;;;5037341;28;20024;-75
2022/11/15 02:04:39;;;;;;;47.60;15.88;;;7.30;99.90;;;;;;5054709;28;20403;-74
2022/11/15 02:07:06;;;;;;;48.17;14.82;;;7.30;99.90;;;;;;5055575;28;20071;-75
2022/11/15 02:09:32;;;;;;;41.90;14.55;;;7.40;99.90;;;;;;5055357;28;20021;-75
2022/11/15 02:11:59;;;;;;;52.15;16.05;;;7.40;99.90;;;;;;5054902;28;20033;-75
2022/11/15 02:14:27;;;;;;;45.65;14.90;;;7.40;99.90;;;;;;5054794;28;20492;-75
2022/11/15 02:17:04;;;;;;;43.53;15.48;;;7.50;99.90;;;;;;5037388;28;20475;-75
2022/11/15 02:19:33;;;;;;;46.58;14.48;;;7.50;99.90;;;;;;5054881;28;20044;-75
2022/11/15 02:22:50;;;;;;;36.03;14.07;;;7.60;99.90;;;;;;5054860;28;20025;-75
2022/11/15 02:25:41;;;;;;;57.42;16.42;;;7.60;99.90;;;;;;5036987;28;20021;-75
2022/11/15 02:28:12;;;;;;;41.22;13.93;;;7.70;99.90;;;;;;5036763;28;20025;-75
2022/11/15 02:30:38;;;;;;;45.40;14.38;;;7.70;99.90;;;;;;5054631;28;20480;-75
2022/11/15 02:33:19;;;;;;;53.70;16.48;;;7.70;99.90;;;;;;5036861;28;20120;-75
2022/11/15 02:35:58;;;;;;;49.50;15.20;;;7.80;99.90;;;;;;5054479;28;20033;-74
2022/11/15 02:39:05;;;;;;;49.83;16.65;;;7.80;99.90;;;;;;5054777;28;20025;-75
2022/11/15 02:41:41;;;;;;;43.25;15.63;;;7.80;99.90;;;;;;5037730;28;20376;-75
2022/11/15 02:44:36;;;;;;;41.67;15.60;;;7.90;99.90;;;;;;5054224;28;20025;-75
2022/11/15 02:47:12;;;;;;;40.83;16.13;;;7.90;99.90;;;;;;5043552;28;20536;-75
2022/11/15 02:49:40;;;;;;;46.92;15.45;;;7.90;99.90;;;;;;5054283;28;20052;-75
2022/11/15 02:52:06;;;;;;;43.35;16.20;;;8.00;99.90;;;;;;5054139;28;20024;-75
2022/11/15 02:54:33;;;;;;;43.00;14.73;;;8.00;99.90;;;;;;5036422;28;20043;-75
2022/11/15 02:57:04;;;;;;;45.30;15.40;;;8.00;99.90;;;;;;5054033;28;20021;-75
2022/11/15 02:59:51;;;;;;;49.03;16.88;;;8.10;99.90;;;;;;5036391;28;20021;-75
2022/11/15 03:02:40;;;;;;;38.75;15.02;;;8.10;99.90;;;;;;5035457;28;20022;-75
2022/11/15 03:05:17;;;;;;;;;;;8.20;99.90;;;;;;5054160;28;20037;-75
2022/11/15 03:07:46;;;;;;;42.30;14.57;;;8.20;99.90;;;;;;5054106;28;19905;-75
2022/11/15 03:10:21;;;;;;;41.33;13.80;;;8.20;99.90;;;;;;5053691;28;20029;-75
2022/11/15 03:13:02;;;;;;;42.72;15.05;;;8.20;99.90;;;;;;5054184;28;20021;-75
2022/11/15 03:15:36;;;;;;;42.00;14.80;;;8.30;99.90;;;;;;5053663;28;20434;-75
2022/11/15 03:18:10;;;;;;;45.83;15.77;;;8.20;99.90;;;;;;5035863;28;20111;-75
2022/11/15 03:20:36;;;;;;;37.33;13.40;;;8.30;99.90;;;;;;5053833;28;20017;-75
2022/11/15 03:23:06;;;;;;;48.15;15.43;;;8.30;99.90;;;;;;5053594;28;20102;-75
2022/11/15 03:25:36;;;;;;;35.97;14.48;;;8.30;99.90;;;;;;5053748;28;20487;-75
2022/11/15 03:28:05;;;;;;;38.13;13.60;;;8.30;99.90;;;;;;5053920;28;20025;-75
2022/11/15 03:30:35;;;;;;;35.65;14.98;;;8.40;99.90;;;;;;5053442;28;20491;-75
2022/11/15 03:33:03;;;;;;;41.10;15.75;;;8.40;99.90;;;;;;5035673;28;20029;-75
2022/11/15 03:35:35;;;;;;;44.38;15.15;;;8.40;99.90;;;;;;5035347;28;20040;-75
2022/11/15 03:38:36;;;;;;;42.30;15.77;;;8.40;99.90;;;;;;5054112;28;20482;-75
2022/11/15 03:41:06;;;;;;;40.10;13.85;;;8.60;99.90;;;;;;5036365;28;20032;-75
2022/11/15 03:43:52;;;;;;;44.97;15.02;;;8.50;99.90;;;;;;5053857;28;20403;-75
2022/11/15 03:46:40;;;;;;;41.60;15.35;;;8.60;99.90;;;;;;5035378;28;20029;-75
2022/11/15 03:49:25;;;;;;;39.28;14.70;;;8.60;99.90;;;;;;5053108;28;20021;-75
2022/11/15 03:51:51;;;;;;;39.83;14.30;;;8.70;99.90;;;;;;5035675;28;20086;-75
2022/11/15 03:54:19;;;;;;;41.58;15.43;;;8.80;99.90;;;;;;5053430;28;20404;-74
2022/11/15 03:56:45;;;;;;;42.38;15.43;;;8.90;99.90;;;;;;5053170;28;20536;-74
2022/11/15 03:59:11;;;;;;;36.92;14.07;;;8.90;99.90;;;;;;5053141;28;20099;-74
2022/11/15 04:01:36;;;;;;;47.22;16.02;;;9.00;99.90;;;;;;5061635;22;20069;-75
2022/11/15 04:04:02;;;;;;;37.85;14.48;;;9.00;99.90;;;;;;5052706;28;20029;-75
2022/11/15 04:06:27;;;;;;;42.15;15.30;;;9.10;99.90;;;;;;5052801;28;20029;-75
2022/11/15 04:08:53;;;;;;;35.95;14.02;;;9.10;99.90;;;;;;5052745;28;20458;-75
2022/11/15 04:11:18;;;;;;;40.83;15.57;;;9.20;99.90;;;;;;5034799;28;20056;-75
2022/11/15 04:13:44;;;;;;;38.50;14.27;;;9.20;99.90;;;;;;5036081;28;20029;-75
2022/11/15 04:16:09;;;;;;;33.20;13.68;;;9.20;99.90;;;;;;5056572;28;20380;-75
2022/11/15 04:18:35;;;;;;;34.78;14.50;;;9.20;99.90;;;;;;5038976;28;20052;-76
2022/11/15 04:26:29;;;;;;;31.42;12.73;;;9.20;99.90;;;;;;5056627;28;20029;-76
2022/11/15 04:31:39;;;;;;;31.58;13.85;;;9.30;99.90;;;;;;5056870;28;20120;-76
2022/11/15 04:34:05;;;;;;;31.55;13.40;;;9.30;99.90;;;;;;5056183;28;20100;-76
2022/11/15 04:39:15;;;;;;;29.77;13.07;;;9.30;99.90;;;;;;5056351;28;20035;-76
2022/11/15 04:41:41;;;;;;;32.20;14.02;;;9.30;99.90;;;;;;5055963;28;20383;-76
2022/11/15 04:44:06;;;;;;;36.17;13.55;;;9.30;99.90;;;;;;5038070;28;20461;-76
2022/11/15 04:46:32;;;;;;;35.83;13.63;;;9.30;99.90;;;;;;5038159;28;20494;-76
2022/11/15 04:48:58;;;;;;;37.10;13.60;;;9.40;99.90;;;;;;5056076;28;20475;-76
2022/11/15 04:51:23;;;;;;;28.42;12.90;;;9.40;99.90;;;;;;5037992;28;20025;-76
2022/11/15 04:53:49;;;;;;;31.25;13.00;;;9.40;99.90;;;;;;5055730;28;20032;-76
2022/11/15 04:56:14;;;;;;;29.58;12.13;;;9.40;99.90;;;;;;5055775;28;20074;-76
2022/11/15 04:58:40;;;;;;;30.27;13.25;;;9.40;99.90;;;;;;5037965;28;20050;-76
2022/11/15 05:01:16;;;;;;;28.27;12.00;;;9.50;99.90;;;;;;5055493;28;20013;-76
2022/11/15 05:06:27;;;;;;;30.88;12.85;;;9.50;99.90;;;;;;5056249;28;20040;-76
2022/11/15 05:08:53;;;;;;;30.17;13.40;;;9.40;99.90;;;;;;5055589;28;20025;-76
2022/11/15 05:11:20;;;;;;;27.65;12.55;;;9.40;99.90;;;;;;5055447;28;20025;-76
2022/11/15 05:13:45;;;;;;;32.78;12.45;;;9.50;99.90;;;;;;5037387;28;20014;-76
2022/11/15 05:16:11;;;;;;;31.38;11.77;;;9.60;99.90;;;;;;5037488;28;20066;-76
2022/11/15 05:18:40;;;;;;;26.70;12.13;;;9.60;99.90;;;;;;5055658;28;20583;-76
2022/11/15 05:21:06;;;;;;;;;;;9.60;99.90;;;;;;5055803;28;20039;-76
2022/11/15 05:23:32;;;;;;;24.90;11.75;;;9.70;99.90;;;;;;5055236;28;19912;-76
2022/11/15 05:26:02;;;;;;;25.50;10.60;;;9.90;99.90;;;;;;5054589;28;20029;-76
2022/11/15 05:28:27;;;;;;;22.98;11.23;;;9.80;99.90;;;;;;5037202;28;20050;-76
2022/11/15 05:30:53;;;;;;;25.45;11.60;;;9.90;99.90;;;;;;5037239;28;20021;-76
2022/11/15 05:33:19;;;;;;;24.08;11.38;;;9.90;99.90;;;;;;5037137;28;20013;-76
2022/11/15 05:35:54;;;;;;;22.38;10.52;;;9.90;99.90;;;;;;5037142;28;20021;-76
2022/11/15 05:38:20;;;;;;;28.17;11.52;;;10.00;99.90;;;;;;5054987;28;20071;-76
2022/11/15 05:40:46;;;;;;;26.63;11.60;;;9.90;99.90;;;;;;5054896;28;20021;-76
2022/11/15 05:43:11;;;;;;;23.60;10.30;;;10.00;99.90;;;;;;5054852;28;20017;-76
2022/11/15 05:45:37;;;;;;;23.55;10.63;;;10.00;99.90;;;;;;5054812;28;20021;-76
2022/11/15 05:48:08;;;;;;;21.17;10.48;;;10.00;99.90;;;;;;5054809;28;20031;-76
2022/11/15 05:50:35;;;;;;;24.85;11.30;;;10.10;99.90;;;;;;5036876;28;20037;-76
2022/11/15 05:53:02;;;;;;;23.42;10.07;;;10.20;99.90;;;;;;5036838;28;20037;-76
2022/11/15 05:55:27;;;;;;;28.23;10.80;;;10.20;99.90;;;;;;5054549;28;20021;-76
2022/11/15 05:57:53;;;;;;;23.60;11.63;;;10.20;99.90;;;;;;5054638;28;20040;-76
2022/11/15 06:00:19;;;;;;;26.10;11.05;;;10.20;99.90;;;;;;5054608;28;20021;-76
2022/11/15 06:02:44;;;;;;;19.95;9.43;;;10.30;99.90;;;;;;5054417;28;20404;-76
2022/11/15 06:05:10;;;;;;;22.35;10.32;;;10.30;99.90;;;;;;5054406;28;20099;-76
2022/11/15 06:07:35;;;;;;;25.88;10.77;;;10.30;99.90;;;;;;5055024;28;20025;-76
2022/11/15 06:10:01;;;;;;;22.20;10.05;;;10.30;99.90;;;;;;5036568;28;20032;-76
2022/11/15 06:12:26;;;;;;;26.35;12.45;;;10.40;99.90;;;;;;5054311;28;20083;-76
2022/11/15 06:14:52;;;;;;;21.85;10.55;;;10.40;99.90;;;;;;5036388;28;20029;-76
2022/11/15 06:17:17;;;;;;;24.30;10.43;;;10.40;99.90;;;;;;5036366;28;20383;-76
2022/11/15 06:19:43;;;;;;;22.48;10.35;;;10.40;99.90;;;;;;5054176;28;20036;-76
2022/11/15 06:22:09;;;;;;;21.67;10.13;;;10.40;99.90;;;;;;5036345;28;20033;-76
2022/11/15 06:24:34;;;;;;;21.20;9.60;;;10.40;99.90;;;;;;5053856;28;20056;-76
2022/11/15 06:27:00;;;;;;;23.90;9.95;;;10.40;99.90;;;;;;5036174;28;20029;-76
2022/11/15 06:29:26;;;;;;;25.02;10.55;;;10.40;99.90;;;;;;5053920;28;20049;-76
2022/11/15 06:31:52;;;;;;;27.25;11.73;;;10.40;99.90;;;;;;5036098;28;20102;-75
2022/11/15 06:34:18;;;;;;;27.52;10.98;;;10.40;99.90;;;;;;5053708;28;20360;-74
2022/11/15 06:36:43;;;;;;;23.38;10.00;;;10.30;99.90;;;;;;5035301;28;20083;-75
2022/11/15 06:39:09;;;;;;;31.27;11.50;;;10.40;99.90;;;;;;5053461;28;20029;-75
2022/11/15 06:41:35;;;;;;;25.65;10.40;;;10.30;99.90;;;;;;5053485;28;20040;-75
2022/11/15 06:44:01;;;;;;;27.67;11.30;;;10.30;99.90;;;;;;5053786;28;20029;-75
2022/11/15 06:46:27;;;;;;;26.48;11.20;;;10.40;99.90;;;;;;5053492;28;20025;-75
2022/11/15 06:48:53;;;;;;;24.20;10.07;;;10.30;99.90;;;;;;5053478;28;20021;-74
2022/11/15 06:51:19;;;;;;;29.55;10.65;;;10.30;99.90;;;;;;5053572;28;20501;-74
2022/11/15 06:53:48;;;;;;;22.35;10.32;;;11.90;99.90;;;;;;5035637;28;20018;-74
2022/11/15 06:56:13;;;;;;;23.30;10.60;;;10.30;99.90;;;;;;5053940;28;20090;-73
2022/11/15 06:58:39;;;;;;;20.85;10.60;;;10.30;99.90;;;;;;5053861;28;20021;-73
2022/11/15 07:01:10;;;;;;;20.95;9.95;;;10.30;99.90;;;;;;5035425;28;20029;-74
2022/11/15 07:03:38;;;;;;;24.33;10.00;;;10.30;99.90;;;;;;5053411;28;20044;-74
2022/11/15 07:06:04;;;;;;;23.40;10.40;;;10.40;99.90;;;;;;5053100;28;20029;-74
2022/11/15 07:08:29;;;;;;;20.88;9.60;;;10.30;99.90;;;;;;5035374;28;20475;-74
2022/11/15 07:10:59;;;;;;;21.58;10.00;;;10.30;99.90;;;;;;5053292;28;20021;-74
2022/11/15 07:13:25;;;;;;;23.08;9.88;;;10.30;99.90;;;;;;5035294;28;20025;-74
2022/11/15 07:15:51;;;;;;;27.17;10.07;;;10.30;99.90;;;;;;5053210;28;20029;-74
2022/11/15 07:18:17;;;;;;;24.20;9.90;;;10.30;99.90;;;;;;5035477;28;20082;-74
2022/11/15 07:20:42;;;;;;;20.48;9.95;;;10.30;99.90;;;;;;5053108;28;20025;-74
2022/11/15 07:23:08;;;;;;;28.77;11.10;;;10.20;99.90;;;;;;5035208;28;20017;-75
2022/11/15 07:25:34;;;;;;;21.58;9.27;;;10.20;99.90;;;;;;5053075;28;20480;-74
2022/11/15 07:28:00;;;;;;;24.92;10.15;;;10.30;99.90;;;;;;5053655;28;20460;-74
2022/11/15 07:30:26;;;;;;;20.10;9.00;;;10.30;99.90;;;;;;5035692;28;20027;-74
2022/11/15 07:32:53;;;;;;;18.70;8.32;;;10.30;99.90;;;;;;5053164;28;20101;-74
2022/11/15 07:35:19;;;;;;;26.05;8.68;;;10.30;99.90;;;;;;5052902;28;20025;-74
2022/11/15 07:37:59;;;;;;;24.02;8.75;;;10.30;99.90;;;;;;5035131;28;20021;-74
2022/11/15 07:40:27;;;;;;;19.80;8.63;;;10.30;99.90;;;;;;5052965;28;20021;-74
2022/11/15 07:42:58;;;;;;;19.38;8.02;;;10.30;99.90;;;;;;5052972;28;20053;-74
2022/11/15 07:45:26;;;;;;;22.00;9.00;;;10.30;99.90;;;;;;5052919;28;20033;-74
2022/11/15 07:47:52;;;;;;;18.52;8.20;;;10.20;99.90;;;;;;5035207;28;20402;-74
2022/11/15 07:50:18;;;;;;;18.33;8.25;;;11.00;99.90;;;;;;5056769;28;20048;-75
2022/11/15 07:52:44;;;;;;;20.80;9.05;;;10.20;99.90;;;;;;5039125;28;20075;-74
2022/11/15 07:55:10;;;;;;;18.02;7.40;;;10.10;99.90;;;;;;5057012;28;20021;-74
2022/11/15 07:57:36;;;;;;;15.90;7.85;;;10.10;99.90;;;;;;5056989;28;20020;-76
2022/11/15 08:00:05;;;;;;;22.80;7.82;;;10.10;99.90;;;;;;5038926;28;20017;-76
2022/11/15 08:02:31;;;;;;;16.05;7.03;;;10.10;99.90;;;;;;5056853;28;20100;-75
2022/11/15 08:04:57;;;;;;;19.45;7.75;;;10.10;99.90;;;;;;5056671;28;20025;-76
2022/11/15 08:07:22;;;;;;;17.38;7.47;;;10.10;99.90;;;;;;5038843;28;20387;-76
2022/11/15 08:09:48;;;;;;;18.85;8.48;;;10.20;99.90;;;;;;5038884;28;20116;-76
2022/11/15 08:12:14;;;;;;;19.60;7.35;;;10.20;99.90;;;;;;5056540;28;20083;-76
2022/11/15 08:14:40;;;;;;;13.85;7.00;;;10.20;99.90;;;;;;5056433;28;20400;-76
2022/11/15 08:17:05;;;;;;;22.30;10.13;;;10.30;99.90;;;;;;5056548;28;20013;-76
2022/11/15 08:19:31;;;;;;;21.17;9.02;;;10.30;99.90;;;;;;5056501;28;20023;-76
2022/11/15 08:21:56;;;;;;;16.92;7.38;;;10.30;99.90;;;;;;5056459;28;20099;-76
2022/11/15 08:24:22;;;;;;;18.73;7.82;;;10.40;99.90;;;;;;5056372;28;20032;-76
2022/11/15 08:26:48;;;;;;;18.45;6.88;;;10.40;99.90;;;;;;5056950;28;20059;-76
2022/11/15 08:29:13;;;;;;;18.40;7.32;;;10.40;99.90;;;;;;5056243;28;20037;-76
2022/11/15 08:31:39;;;;;;;13.52;6.28;;;10.50;99.90;;;;;;5038373;28;20021;-76
2022/11/15 08:34:05;;;;;;;16.60;6.90;;;10.50;99.90;;;;;;5056129;28;20103;-76
2022/11/15 08:36:31;;;;;;;18.15;6.30;;;10.50;99.90;;;;;;5038250;28;20028;-76
2022/11/15 08:38:57;;;;;;;12.35;5.88;;;10.50;99.90;;;;;;5056079;28;20029;-76
2022/11/15 08:41:31;;;;;;;16.25;6.72;;;10.60;99.90;;;;;;5056083;28;20024;-77
2022/11/15 08:43:57;;;;;;;12.25;5.75;;;10.60;99.90;;;;;;5056642;28;20445;-76
2022/11/15 08:46:23;;;;;;;12.77;5.70;;;10.60;99.90;;;;;;5038149;28;20025;-76
2022/11/15 08:48:49;;;;;;;15.27;5.93;;;10.60;99.90;;;;;;5038103;28;20021;-76
2022/11/15 08:51:14;;;;;;;12.10;6.00;;;10.60;99.90;;;;;;5055893;28;20414;-76
2022/11/15 08:53:43;;;;;;;13.10;5.68;;;10.70;99.90;;;;;;5055810;28;20033;-74
2022/11/15 08:56:14;;;;;;;12.48;5.32;;;10.30;99.90;;;;;;5055836;28;20436;-75
2022/11/15 08:58:40;;;;;;;12.60;5.60;;;10.70;99.90;;;;;;5056245;28;20349;-75
2022/11/15 09:01:06;;;;;;;15.38;5.55;;;10.80;99.90;;;;;;5054552;28;20021;-75
2022/11/15 09:03:32;;;;;;;12.35;5.38;;;10.80;99.90;;;;;;5055498;28;20037;-75
2022/11/15 09:05:59;;;;;;;9.63;4.13;;;11.00;99.90;;;;;;5055583;28;20546;-75
2022/11/15 09:08:26;;;;;;;11.55;4.50;;;11.10;99.90;;;;;;5055477;28;20057;-75
2022/11/15 09:10:51;;;;;;;14.95;4.85;;;11.10;99.90;;;;;;5055456;28;20546;-76
2022/11/15 09:13:17;;;;;;;11.48;4.22;;;11.20;99.90;;;;;;5055491;28;20021;-76
2022/11/15 09:15:42;;;;;;;7.78;3.55;;;11.20;99.90;;;;;;5037396;28;20465;-77
2022/11/15 09:18:08;;;;;;;8.88;4.43;;;11.30;99.90;;;;;;5038445;28;20028;-76
2022/11/15 09:20:34;;;;;;;11.68;4.35;;;11.20;99.90;;;;;;5037663;28;20058;-77
2022/11/15 09:23:01;;;;;;;10.50;4.68;;;11.30;99.90;;;;;;5037931;28;20018;-77
2022/11/15 09:25:27;;;;;;;10.57;4.88;;;11.50;99.90;;;;;;5055479;28;20377;-77
2022/11/15 09:27:52;;;;;;;12.48;4.35;;;11.50;99.90;;;;;;5055366;28;20021;-78
2022/11/15 09:30:18;;;;;;;9.57;3.65;;;11.50;99.90;;;;;;5037622;28;20040;-77
2022/11/15 09:32:43;;;;;;;10.32;4.30;;;11.60;99.90;;;;;;5055402;28;20033;-75
2022/11/15 09:35:09;;;;;;;9.00;3.67;;;11.50;99.90;;;;;;5055564;28;20028;-77
2022/11/15 09:37:35;;;;;;;7.82;3.70;;;11.60;99.90;;;;;;5055113;28;20031;-76
2022/11/15 09:40:00;;;;;;;10.40;3.60;;;11.60;99.90;;;;;;5055127;28;20028;-77
2022/11/15 09:42:47;;;;;;;10.20;3.75;;;11.90;99.90;;;;;;5037120;28;20048;-77
2022/11/15 09:45:31;;;;;;;8.48;3.25;;;11.70;99.90;;;;;;5055662;28;20110;-77
2022/11/15 09:48:08;;;;;;;8.35;3.20;;;11.70;99.90;;;;;;5037008;28;20115;-77
2022/11/15 09:50:50;;;;;;;6.78;2.58;;;11.80;99.90;;;;;;5037079;28;20029;-77
2022/11/15 09:53:25;;;;;;;9.95;2.67;;;11.80;99.90;;;;;;5037166;28;20111;-77
2022/11/15 09:56:00;;;;;;;4.82;2.65;;;11.70;99.90;;;;;;5054728;28;20480;-77
2022/11/15 09:58:57;;;;;;;11.88;2.65;;;11.80;99.90;;;;;;5036910;28;20420;-77
2022/11/15 10:01:56;;;;;;;8.45;2.40;;;11.80;99.90;;;;;;4985183;28;20053;-77
2022/11/15 10:04:23;;;;;;;4.50;2.05;;;12.00;99.90;;;;;;5055126;28;20051;-77
2022/11/15 10:07:35;;;;;;;9.82;2.30;;;12.00;99.90;;;;;;5054755;28;20029;-77
2022/11/15 10:10:03;;;;;;;5.20;2.15;;;12.00;99.90;;;;;;5043837;28;20075;-77
2022/11/15 10:12:29;;;;;;;5.88;1.50;;;12.10;99.90;;;;;;5036500;28;20029;-76
2022/11/15 10:15:11;;;;;;;6.65;1.77;;;12.10;99.90;;;;;;5036409;28;20428;-76
2022/11/15 10:18:01;;;;;;;4.85;1.52;;;12.00;99.90;;;;;;5037006;28;20523;-76
2022/11/15 10:20:35;;;;;;;3.83;1.40;;;12.10;99.90;;;;;;5036885;28;20488;-77
2022/11/15 10:23:05;;;;;;;6.13;1.95;;;12.40;99.90;;;;;;5054958;28;20033;-77
2022/11/15 10:25:33;;;;;;;4.88;1.90;;;12.20;99.90;;;;;;5036880;28;20029;-78
2022/11/15 10:28:06;;;;;;;6.15;1.38;;;12.10;99.90;;;;;;5055145;28;20083;-77
2022/11/15 10:30:39;;;;;;;3.05;1.50;;;12.10;99.90;;;;;;5055291;28;20449;-78
2022/11/15 10:33:19;;;;;;;5.85;2.42;;;12.20;99.90;;;;;;5036857;28;20025;-77
2022/11/15 10:35:45;;;;;;;6.47;1.63;;;12.20;99.90;;;;;;5036931;28;20021;-78
2022/11/15 10:38:11;;;;;;;2.95;1.50;;;12.90;99.90;;;;;;5054890;28;20021;-78
2022/11/15 10:40:39;;;;;;;5.82;1.80;;;12.30;99.90;;;;;;5054643;28;20112;-77
2022/11/15 10:43:18;;;;;;;5.13;1.80;;;13.50;99.90;;;;;;5038078;28;20021;-77
2022/11/15 10:45:44;;;;;;;;;;;12.30;99.90;;;;;;5055012;28;20036;-78
2022/11/15 10:48:13;;;;;;;5.05;1.55;;;12.40;99.90;;;;;;5036545;28;19927;-78
2022/11/15 10:50:44;;;;;;;3.05;1.77;;;12.40;99.90;;;;;;5054661;28;20036;-78
2022/11/15 10:53:23;;;;;;;4.00;1.17;;;12.40;99.90;;;;;;5054718;28;20159;-77
2022/11/15 10:55:52;;;;;;;7.28;1.13;;;12.40;99.90;;;;;;5036618;28;20036;-78
2022/11/15 10:58:35;;;;;;;7.05;2.20;;;12.40;99.90;;;;;;5054344;28;20365;-77
2022/11/15 11:01:21;;;;;;;4.00;0.57;;;12.40;99.90;;;;;;5036748;28;20032;-78
2022/11/15 11:04:07;;;;;;;2.95;0.65;;;12.60;99.90;;;;;;5054285;28;20032;-78
2022/11/15 11:06:55;;;;;;;2.38;0.32;;;12.50;99.90;;;;;;5036296;28;20017;-78
2022/11/15 11:09:36;;;;;;;1.98;0.45;;;12.70;99.90;;;;;;5054174;28;20025;-77
2022/11/15 11:12:04;;;;;;;4.28;0.50;;;12.70;99.90;;;;;;5054677;28;20545;-78
2022/11/15 11:14:33;;;;;;;4.20;0.10;;;13.00;99.90;;;;;;5036232;28;20514;-78
2022/11/15 11:17:37;;;;;;;6.90;0.63;;;13.00;99.90;;;;;;5036230;28;20045;-77
2022/11/15 11:20:21;;;;;;;2.92;0.30;;;13.00;99.90;;;;;;5055036;28;20027;-77
2022/11/15 11:22:59;;;;;;;4.18;0.50;;;12.90;99.90;;;;;;5054402;28;20021;-78
2022/11/15 11:25:45;;;;;;;5.00;0.20;;;12.90;99.90;;;;;;5053950;28;20112;-77
2022/11/15 11:28:41;;;;;;;3.67;0.77;;;12.90;99.90;;;;;;5053872;28;20550;-77
2022/11/15 11:31:19;;;;;;;0.80;0.38;;;12.90;99.90;;;;;;5053933;28;20368;-78
2022/11/15 11:34:01;;;;;;;2.20;0.20;;;12.90;99.90;;;;;;5035863;28;20032;-77
2022/11/15 11:36:41;;;;;;;1.95;0.38;;;13.00;99.90;;;;;;5054040;28;20111;-77
2022/11/15 11:39:46;;;;;;;2.38;0.10;;;13.00;99.90;;;;;;5053677;28;20487;-77
2022/11/15 11:42:36;;;;;;;1.77;0.10;;;13.00;99.90;;;;;;4982617;28;20039;-78
2022/11/15 11:45:23;;;;;;;2.00;0.47;;;13.20;99.90;;;;;;5035735;28;20035;-77
2022/11/15 11:48:18;;;;;;;2.08;0.00;;;13.20;99.90;;;;;;5035845;28;20440;-77
2022/11/15 11:50:45;;;;;;;5.22;0.45;;;13.30;99.90;;;;;;5025223;28;20526;-77
2022/11/15 11:53:37;;;;;;;3.90;0.08;;;13.50;99.90;;;;;;5054020;28;20013;-78
2022/11/15 11:56:16;;;;;;;1.98;0.08;;;13.50;99.90;;;;;;5035771;28;20043;-78
2022/11/15 11:58:45;;;;;;;3.22;0.15;;;13.60;99.90;;;;;;5035874;28;20364;-78
2022/11/15 12:01:25;;;;;;;4.55;0.15;;;13.70;99.90;;;;;;5053517;28;20472;-78
2022/11/15 12:04:14;;;;;;;1.40;0.00;;;13.70;99.90;;;;;;5053815;28;20041;-78
2022/11/15 12:06:55;;;;;;;1.60;0.00;;;13.70;99.90;;;;;;5035536;28;20025;-77
2022/11/15 12:09:30;;;;;;;0.20;0.08;;;13.70;99.90;;;;;;5053684;28;20506;-78
2022/11/15 12:12:06;;;;;;;2.28;0.00;;;13.70;99.90;;;;;;5053508;28;20068;-78
2022/11/15 12:14:44;;;;;;;1.95;0.15;;;13.80;99.90;;;;;;5054060;28;20025;-77
2022/11/15 12:17:13;;;;;;;2.50;0.00;;;13.80;99.90;;;;;;5035516;28;20025;-77
2022/11/15 12:19:40;;;;;;;1.10;0.10;;;13.90;99.90;;;;;;5052990;28;20064;-77
2022/11/15 12:22:38;;;;;;;5.05;0.15;;;13.90;99.90;;;;;;5052744;28;20017;-77
2022/11/15 12:25:19;;;;;;;2.85;0.10;;;13.90;99.90;;;;;;5034900;28;20125;-77
2022/11/15 12:27:55;;;;;;;0.13;0.00;;;14.00;99.90;;;;;;5053310;28;20017;-77
2022/11/15 12:30:22;;;;;;;1.80;0.00;;;14.00;99.90;;;;;;5052590;28;20021;-77
2022/11/15 12:32:57;;;;;;;1.30;0.28;;;13.90;99.90;;;;;;5035162;28;20025;-77
2022/11/15 12:35:41;;;;;;;1.33;0.00;;;14.10;99.90;;;;;;5054650;28;20021;-77
2022/11/15 12:38:12;;;;;;;2.70;0.10;;;14.10;99.90;;;;;;5038532;28;20502;-77
2022/11/15 12:40:58;;;;;;;5.15;0.00;;;14.20;99.90;;;;;;5056333;28;20025;-77
2022/11/15 12:43:41;;;;;;;1.35;0.00;;;14.30;99.90;;;;;;5037938;28;20029;-77
2022/11/15 12:46:20;;;;;;;1.77;0.00;;;14.40;99.90;;;;;;5038122;28;20399;-77
2022/11/15 12:48:47;;;;;;;5.53;0.55;;;14.50;99.90;;;;;;5038196;28;20383;-77
2022/11/15 12:51:13;;;;;;;1.65;0.00;;;14.50;99.90;;;;;;5056047;28;20044;-77
2022/11/15 12:53:39;;;;;;;0.55;0.00;;;14.50;99.90;;;;;;5055877;28;20083;-77
2022/11/15 12:56:16;;;;;;;4.20;0.40;;;14.60;99.90;;;;;;5055738;28;20067;-77
2022/11/15 12:58:42;;;;;;;1.70;0.00;;;14.60;99.90;;;;;;5056460;28;20025;-77
2022/11/15 13:01:09;;;;;;;1.63;0.00;;;14.60;99.90;;;;;;5055986;28;20036;-77
2022/11/15 13:03:35;;;;;;;1.52;0.00;;;14.70;99.90;;;;;;5037820;28;20029;-77
2022/11/15 13:06:07;;;;;;;1.20;0.00;;;16.00;99.90;;;;;;5055849;28;20029;-77
2022/11/15 13:08:43;;;;;;;2.22;0.00;;;14.70;99.90;;;;;;5055781;28;20021;-77
2022/11/15 13:11:43;;;;;;;4.07;0.00;;;14.60;99.90;;;;;;5037865;28;20087;-77